Time;durP1;ratioP1;P1;durP2;ratioP2;P2;SDS_P1;SDS_P2;PMS_P1;PMS_P2;Temp;Humidity;BMP_temperature;BMP_pressure;BME280_temperature;BME280_humidity;BME280_pressure;Samples;Min_cycle;Max_cycle;Signal;HPM_P1;HPM_P2
2022/12/20 00:00:48;;;;;;;18.92;13.63;;;;;;;5.61;39.67;95733.63;4979751;28;20103;-68
2022/12/20 00:03:14;;;;;;;19.48;13.60;;;;;;;5.48;40.60;95734.78;4978219;28;20123;-68
2022/12/20 00:05:39;;;;;;;17.73;12.73;;;;;;;5.47;40.53;95733.13;4979322;28;20102;-67
2022/12/20 00:08:06;;;;;;;19.20;13.52;;;;;;;5.43;40.50;95731.75;4978866;28;20147;-67
2022/12/20 00:10:37;;;;;;;16.75;12.10;;;;;;;5.41;40.64;95731.06;4981907;28;20182;-67
2022/12/20 00:13:03;;;;;;;21.17;13.90;;;;;;;5.44;40.61;95727.31;4981928;28;20086;-68
2022/12/20 00:15:30;;;;;;;18.05;12.95;;;;;;;5.43;40.21;95729.13;4983334;28;20128;-67
2022/12/20 00:17:55;;;;;;;18.33;12.93;;;;;;;5.39;40.50;95733.03;4980005;28;20172;-67
2022/12/20 00:20:21;;;;;;;17.58;13.05;;;;;;;5.40;40.23;95729.41;4978542;28;20554;-69
2022/12/20 00:22:46;;;;;;;17.48;12.80;;;;;;;5.38;39.84;95720.81;4980339;28;20094;-67
2022/12/20 00:25:11;;;;;;;18.38;12.55;;;;;;;5.34;40.76;95719.44;4980259;28;20088;-68
2022/12/20 00:27:37;;;;;;;18.42;12.93;;;;;;;5.35;40.50;95721.09;4980192;28;20496;-67
2022/12/20 00:30:03;;;;;;;18.48;12.25;;;;;;;5.34;40.69;95730.78;4979896;28;20093;-67
2022/12/20 00:32:28;;;;;;;16.90;12.10;;;;;;;5.32;40.39;95718.72;4979468;28;20162;-67
2022/12/20 00:34:54;;;;;;;18.85;12.48;;;;;;;5.18;42.08;95709.44;4978517;28;20102;-69
2022/12/20 00:37:19;;;;;;;16.70;12.02;;;;;;;5.21;40.67;95702.06;4981595;28;20169;-68
2022/12/20 00:39:45;;;;;;;15.75;11.73;;;;;;;5.20;40.65;95695.13;4980964;28;20083;-68
2022/12/20 00:42:10;;;;;;;16.08;11.70;;;;;;;5.19;40.95;95700.53;4978079;28;20116;-68
2022/12/20 00:44:35;;;;;;;16.60;11.80;;;;;;;5.17;41.53;95711.22;4983988;28;20090;-68
2022/12/20 00:47:01;;;;;;;16.48;11.18;;;;;;;5.21;41.36;95706.53;4983538;28;20307;-68
2022/12/20 00:49:26;;;;;;;17.25;11.63;;;;;;;5.21;40.65;95709.16;4981187;28;20220;-69
2022/12/20 00:51:51;;;;;;;18.00;11.88;;;;;;;5.15;41.84;95713.19;4983076;28;20081;-69
2022/12/20 00:54:17;;;;;;;16.33;11.60;;;;;;;5.13;41.82;95707.22;4983926;28;20105;-67
2022/12/20 00:56:42;;;;;;;16.58;11.32;;;;;;;5.22;40.81;95705.53;4984354;28;20090;-67
2022/12/20 00:59:08;;;;;;;17.98;11.25;;;;;;;5.19;41.25;95698.75;4983232;28;20114;-69
2022/12/20 01:01:33;;;;;;;16.40;11.38;;;;;;;5.29;41.10;95700.50;4980586;28;20106;-68
2022/12/20 01:03:59;;;;;;;16.30;11.43;;;;;;;5.28;40.64;95688.31;4982649;28;20538;-69
2022/12/20 01:06:24;;;;;;;14.57;11.00;;;;;;;5.16;41.01;95684.97;4982816;28;20154;-69
2022/12/20 01:08:51;;;;;;;17.23;11.52;;;;;;;5.07;41.62;95682.22;4981369;28;20081;-69
2022/12/20 01:11:27;;;;;;;16.67;11.27;;;;;;;5.25;41.04;95680.66;4984493;28;20097;-67
2022/12/20 01:13:54;;;;;;;17.17;11.77;;;;;;;5.25;41.00;95675.38;4983236;28;20247;-67
2022/12/20 01:16:28;;;;;;;18.33;10.98;;;;;;;5.23;40.74;95664.97;4984103;28;20081;-68
2022/12/20 01:18:53;;;;;;;17.67;11.10;;;;;;;5.23;41.05;95670.25;4980466;28;20129;-67
2022/12/20 01:21:21;;;;;;;16.25;10.85;;;;;;;5.27;40.96;95674.25;4980661;28;20558;-67
2022/12/20 01:23:46;;;;;;;15.95;10.73;;;;;;;5.24;40.92;95669.28;4984317;28;20534;-67
2022/12/20 01:26:13;;;;;;;16.42;11.02;;;;;;;5.24;41.27;95677.22;4983102;28;20125;-66
2022/12/20 01:28:44;;;;;;;19.38;12.05;;;;;;;5.21;41.32;95678.28;4982849;28;20106;-68
2022/12/20 01:31:11;;;;;;;17.17;11.73;;;;;;;5.29;40.85;95684.69;4981375;28;20102;-68
2022/12/20 01:33:37;;;;;;;15.70;11.35;;;;;;;5.25;40.39;95685.94;4982770;28;20607;-69
2022/12/20 01:36:07;;;;;;;16.23;10.90;;;;;;;5.24;41.05;95677.22;4983709;28;20084;-66
2022/12/20 01:38:34;;;;;;;15.90;10.80;;;;;;;5.37;43.21;95682.16;4986537;28;20427;-68
2022/12/20 01:40:59;;;;;;;19.92;10.75;;;;;;;5.50;43.03;95671.28;4986313;28;20086;-67
2022/12/20 01:43:25;;;;;;;16.42;11.38;;;;;;;5.51;43.94;95656.28;4982892;28;20086;-68
2022/12/20 01:45:51;;;;;;;16.33;11.63;;;;;;;5.51;44.88;95656.28;4983492;28;20590;-68
2022/12/20 01:48:20;;;;;;;16.02;11.10;;;;;;;5.54;45.19;95646.22;4988032;28;20079;-69
2022/12/20 01:50:46;;;;;;;17.60;11.13;;;;;;;5.35;45.04;95644.50;4981622;28;20754;-67
2022/12/20 01:53:12;;;;;;;15.88;10.73;;;;;;;5.22;44.81;95660.66;4984348;28;20548;-68
2022/12/20 01:55:37;;;;;;;16.40;10.43;;;;;;;5.13;46.13;95659.72;4982754;28;20123;-69
2022/12/20 01:58:09;;;;;;;16.92;10.73;;;;;;;5.19;48.53;95664.44;4984935;28;20101;-69
2022/12/20 02:00:36;;;;;;;17.98;10.20;;;;;;;5.39;47.90;95669.66;4967872;28;20091;-68
2022/12/20 02:03:04;;;;;;;27.83;11.20;;;;;;;5.26;47.63;95669.13;4983003;28;20193;-67
2022/12/20 02:05:36;;;;;;;15.83;10.70;;;;;;;5.21;47.82;95659.00;4983695;28;20154;-66
2022/12/20 02:08:02;;;;;;;18.25;9.75;;;;;;;5.21;47.77;95659.81;4987004;28;20073;-69
2022/12/20 02:10:37;;;;;;;14.60;10.20;;;;;;;5.07;48.15;95652.38;4979336;28;20552;-69
2022/12/20 02:13:07;;;;;;;15.52;9.55;;;;;;;5.12;48.61;95644.84;4982440;28;20089;-68
2022/12/20 02:15:42;;;;;;;14.50;9.93;;;;;;;5.17;48.17;95649.72;4985721;28;20107;-67
2022/12/20 02:18:22;;;;;;;15.93;9.98;;;;;;;5.19;48.23;95643.31;4982411;28;20110;-67
2022/12/20 02:21:19;;;;;;;12.30;8.93;;;;;;;5.26;48.30;95642.72;4987172;28;20102;-68
2022/12/20 02:24:06;;;;;;;14.63;9.32;;;;;;;5.14;47.33;95629.69;4986334;28;20121;-69
2022/12/20 02:26:41;;;;;;;14.38;9.88;;;;;;;5.16;48.60;95621.63;4982705;28;20106;-68
2022/12/20 02:29:44;;;;;;;14.32;8.88;;;;;;;5.15;49.08;95620.81;4986255;28;20090;-68
2022/12/20 02:32:16;;;;;;;16.00;9.80;;;;;;;5.30;48.61;95620.34;4982816;28;20929;-68
2022/12/20 02:34:41;;;;;;;16.92;9.18;;;;;;;5.33;48.47;95633.25;4985368;28;20114;-67
2022/12/20 02:37:07;;;;;;;15.60;9.77;;;;;;;5.28;48.69;95624.94;4982689;28;20101;-69
2022/12/20 02:39:33;;;;;;;13.23;9.13;;;;;;;5.33;48.49;95627.97;4984504;28;20077;-69
2022/12/20 02:42:02;;;;;;;15.57;10.63;;;;;;;5.14;48.02;95618.31;4982480;28;20233;-69
2022/12/20 02:47:17;;;;;;;16.48;9.77;;;;;;;5.33;48.33;95620.06;4969967;28;20148;-68
2022/12/20 02:49:42;;;;;;;15.90;9.40;;;;;;;5.47;48.31;95624.88;4967654;28;20206;-67
2022/12/20 02:52:08;;;;;;;14.23;10.30;;;;;;;5.41;47.97;95616.69;4984060;28;20078;-69
2022/12/20 02:54:33;;;;;;;18.08;10.23;;;;;;;5.24;47.78;95623.56;4968714;28;20572;-67
2022/12/20 02:57:02;;;;;;;14.93;10.35;;;;;;;5.27;47.76;95612.72;4984414;28;20611;-68
2022/12/20 02:59:29;;;;;;;13.82;9.57;;;;;;;5.41;48.83;95616.69;4984423;28;20651;-68
2022/12/20 03:01:55;;;;;;;15.85;9.95;;;;;;;5.48;49.11;95623.06;4965597;28;20122;-69
2022/12/20 03:04:22;;;;;;;18.13;10.55;;;;;;;5.35;50.03;95632.13;4980810;28;20547;-67
2022/12/20 03:07:05;;;;;;;13.85;9.57;;;;;;;5.51;50.04;95624.56;4982789;28;20113;-68
2022/12/20 03:09:31;;;;;;;13.68;9.95;;;;;;;5.55;48.83;95621.47;4983850;28;20131;-66
2022/12/20 03:11:57;;;;;;;14.32;9.85;;;;;;;5.53;47.91;95618.16;4982445;28;20128;-69
2022/12/20 03:14:22;;;;;;;13.95;9.38;;;;;;;5.53;49.04;95619.97;4983082;28;20509;-67
2022/12/20 03:16:48;;;;;;;15.02;9.18;;;;;;;5.72;48.48;95613.78;4983572;28;20109;-69
2022/12/20 03:19:13;;;;;;;13.95;9.20;;;;;;;5.77;48.76;95619.44;4984894;28;20134;-67
2022/12/20 03:21:38;;;;;;;14.40;10.07;;;;;;;5.84;48.60;95624.94;4980962;28;20113;-67
2022/12/20 03:24:04;;;;;;;14.85;9.90;;;;;;;5.36;50.86;95627.69;4987165;28;20360;-68
2022/12/20 03:26:29;;;;;;;16.77;10.63;;;;;;;5.28;51.03;95632.84;4982162;28;20231;-68
2022/12/20 03:28:55;;;;;;;14.55;8.90;;;;;;;5.70;50.21;95647.41;4979457;28;20147;-68
2022/12/20 03:31:20;;;;;;;14.13;9.40;;;;;;;5.95;49.41;95653.00;4985854;28;20099;-67
2022/12/20 03:33:46;;;;;;;13.63;8.68;;;;;;;6.02;49.63;95632.09;4984338;28;20179;-69
2022/12/20 03:36:11;;;;;;;13.05;8.88;;;;;;;6.08;49.35;95634.13;4985396;28;20645;-67
2022/12/20 03:38:37;;;;;;;14.73;10.00;;;;;;;6.06;49.13;95629.00;4985509;28;20114;-69
2022/12/20 03:41:02;;;;;;;15.55;9.20;;;;;;;6.17;48.93;95629.75;4984081;28;20348;-69
2022/12/20 03:43:27;;;;;;;11.98;8.60;;;;;;;6.19;48.53;95625.97;4984026;28;20515;-69
2022/12/20 03:45:53;;;;;;;13.57;9.23;;;;;;;6.18;48.66;95618.19;4982594;28;20734;-69
2022/12/20 03:48:18;;;;;;;17.60;9.90;;;;;;;6.19;48.06;95617.25;4983184;28;20087;-68
2022/12/20 03:50:44;;;;;;;13.23;9.50;;;;;;;6.10;48.74;95624.25;4984573;28;20112;-69
2022/12/20 03:53:09;;;;;;;15.82;11.52;;;;;;;6.11;48.00;95610.03;4980687;28;20090;-68
2022/12/20 03:55:34;;;;;;;18.83;13.00;;;;;;;5.89;45.40;95619.25;4980013;28;20113;-67
2022/12/20 03:58:00;;;;;;;18.33;13.30;;;;;;;5.80;43.98;95611.22;4982029;28;20284;-67
2022/12/20 04:00:25;;;;;;;22.02;14.52;;;;;;;5.79;43.06;95614.84;4983313;28;20100;-69
2022/12/20 04:02:51;;;;;;;17.98;12.02;;;;;;;5.88;42.36;95618.41;4980968;28;20109;-69
2022/12/20 04:05:16;;;;;;;19.23;12.70;;;;;;;5.92;41.82;95611.84;4983459;28;20489;-68
2022/12/20 04:07:42;;;;;;;20.80;13.77;;;;;;;5.93;41.94;95610.03;4984868;28;20069;-69
2022/12/20 04:10:07;;;;;;;21.60;11.45;;;;;;;5.97;42.23;95614.03;4981820;28;20113;-67
2022/12/20 04:12:33;;;;;;;15.68;10.40;;;;;;;6.03;42.20;95617.91;4985127;28;20108;-69
2022/12/20 04:14:58;;;;;;;16.58;11.07;;;;;;;5.99;42.52;95612.91;4983305;28;20586;-68
2022/12/20 04:17:24;;;;;;;18.27;12.88;;;;;;;5.97;41.28;95608.75;4983262;28;20101;-69
2022/12/20 04:19:49;;;;;;;17.05;11.52;;;;;;;6.01;42.54;95606.66;4986815;28;20292;-68
2022/12/20 04:22:14;;;;;;;19.75;12.55;;;;;;;6.07;41.76;95598.94;4981179;28;20499;-68
2022/12/20 04:24:40;;;;;;;19.17;13.13;;;;;;;6.06;40.87;95601.75;4983480;28;20077;-69
2022/12/20 04:27:05;;;;;;;17.75;12.65;;;;;;;6.10;41.60;95608.41;4986389;28;20118;-68
2022/12/20 04:29:31;;;;;;;20.45;13.70;;;;;;;6.12;41.42;95607.25;4982494;28;20106;-70
2022/12/20 04:31:56;;;;;;;17.85;12.65;;;;;;;6.05;41.56;95615.94;4977898;28;20089;-69
2022/12/20 04:34:21;;;;;;;19.63;13.68;;;;;;;6.02;41.21;95600.38;4979567;28;20096;-69
2022/12/20 04:36:47;;;;;;;20.45;13.73;;;;;;;5.93;41.76;95597.66;4984598;28;20383;-69
2022/12/20 04:39:12;;;;;;;19.40;12.52;;;;;;;6.07;43.75;95598.13;4983259;28;20109;-67
2022/12/20 04:41:38;;;;;;;18.67;13.32;;;;;;;5.91;40.67;95583.75;4984005;28;20114;-69
2022/12/20 04:44:03;;;;;;;20.25;12.13;;;;;;;5.82;42.08;95588.09;4980523;28;20080;-67
2022/12/20 04:46:28;;;;;;;20.73;13.40;;;;;;;5.90;41.41;95576.81;4981828;28;20173;-67
2022/12/20 04:48:54;;;;;;;16.35;12.20;;;;;;;5.77;42.17;95587.72;4985068;28;20079;-68
2022/12/20 04:51:19;;;;;;;17.77;12.50;;;;;;;5.79;43.43;95579.66;4979823;28;20397;-69
2022/12/20 04:53:48;;;;;;;18.92;12.73;;;;;;;5.92;41.28;95590.69;4980056;28;20107;-69
2022/12/20 04:56:33;;;;;;;18.02;12.35;;;;;;;5.86;41.75;95583.38;4981991;28;20178;-67
2022/12/20 04:58:59;;;;;;;16.10;10.43;;;;;;;5.88;44.19;95583.22;4979705;28;20116;-69
2022/12/20 05:01:24;;;;;;;21.08;12.48;;;;;;;5.86;42.13;95575.44;4982314;28;20114;-68
2022/12/20 05:03:50;;;;;;;20.60;13.25;;;;;;;5.85;40.89;95573.78;4982703;28;20081;-69
2022/12/20 05:06:15;;;;;;;17.92;11.80;;;;;;;5.78;44.91;95578.00;4980645;28;20169;-67
2022/12/20 05:08:41;;;;;;;19.13;12.65;;;;;;;5.79;43.02;95579.66;4979561;28;20081;-68
2022/12/20 05:11:07;;;;;;;17.35;12.05;;;;;;;5.90;42.10;95576.81;4985582;28;20103;-68
2022/12/20 05:13:32;;;;;;;18.83;12.60;;;;;;;5.91;41.69;95578.47;4985167;28;20104;-68
2022/12/20 05:15:58;;;;;;;17.88;12.70;;;;;;;5.90;41.35;95571.53;4984611;28;20084;-69
2022/12/20 05:18:24;;;;;;;19.55;12.80;;;;;;;5.89;41.03;95564.59;4981031;28;20168;-67
2022/12/20 05:26:16;;;;;;;18.98;12.20;;;;;;;5.75;41.91;95550.09;4985576;28;20089;-67
2022/12/20 05:26:19;;;;;;;19.05;11.43;;;;;;;5.82;42.47;95555.59;4985345;28;20115;-69
2022/12/20 05:28:45;;;;;;;16.77;12.02;;;;;;;5.82;41.49;95552.94;4985156;28;20533;-69
2022/12/20 05:31:10;;;;;;;17.30;11.95;;;;;;;5.82;41.60;95552.94;4984491;28;20107;-68
2022/12/20 05:33:36;;;;;;;16.05;11.27;;;;;;;5.81;42.07;95546.81;4980832;28;20483;-69
2022/12/20 05:36:01;;;;;;;16.13;11.85;;;;;;;5.74;42.03;95546.59;4986312;28;20142;-68
2022/12/20 05:38:26;;;;;;;16.55;11.65;;;;;;;5.71;41.78;95541.59;4988339;28;20629;-69
2022/12/20 05:40:52;;;;;;;18.08;11.02;;;;;;;5.63;41.88;95540.69;4985782;28;20091;-70
2022/12/20 05:43:17;;;;;;;17.30;11.63;;;;;;;5.61;43.18;95546.94;4985584;28;20427;-69
2022/12/20 05:45:50;;;;;;;16.90;10.93;;;;;;;5.50;42.78;95549.78;4983799;28;20565;-69
2022/12/20 05:48:15;;;;;;;16.00;11.35;;;;;;;5.60;41.44;95539.16;4984569;28;20112;-67
2022/12/20 05:50:42;;;;;;;16.15;11.05;;;;;;;5.53;42.75;95544.22;4987155;28;20108;-70
2022/12/20 05:53:09;;;;;;;15.98;11.10;;;;;;;5.53;41.87;95533.66;4984333;28;20074;-69
2022/12/20 05:55:35;;;;;;;15.93;10.85;;;;;;;5.50;43.37;95533.13;4985979;28;20598;-69
2022/12/20 05:58:01;;;;;;;17.73;11.23;;;;;;;5.55;41.86;95547.53;4984226;28;20176;-70
2022/12/20 06:00:26;;;;;;;16.80;11.40;;;;;;;5.58;41.79;95543.78;4984736;28;20098;-69
2022/12/20 06:02:51;;;;;;;16.65;11.32;;;;;;;5.60;41.39;95544.44;4980556;28;20146;-68
2022/12/20 06:05:17;;;;;;;16.90;11.50;;;;;;;5.60;41.92;95539.16;4985231;28;20318;-68
2022/12/20 06:07:42;;;;;;;15.77;10.57;;;;;;;5.61;41.23;95536.38;4984999;28;20082;-68
2022/12/20 06:10:09;;;;;;;18.55;11.30;;;;;;;5.56;42.10;95537.81;4982641;28;20643;-67
2022/12/20 06:12:34;;;;;;;16.38;11.32;;;;;;;5.56;41.63;95530.72;4984675;28;20602;-67
2022/12/20 06:14:59;;;;;;;15.95;11.18;;;;;;;5.53;41.22;95532.81;4984063;28;20446;-68
2022/12/20 06:17:25;;;;;;;18.98;11.20;;;;;;;5.47;42.65;95529.81;4982875;28;20168;-68
2022/12/20 06:19:50;;;;;;;17.40;10.85;;;;;;;5.55;42.63;95531.69;4984567;28;20089;-67
2022/12/20 06:22:16;;;;;;;16.60;10.50;;;;;;;5.52;41.78;95533.81;4985904;28;20136;-70
2022/12/20 06:24:41;;;;;;;17.92;11.27;;;;;;;5.55;41.67;95536.16;4985269;28;20083;-68
2022/12/20 06:27:06;;;;;;;15.77;10.65;;;;;;;5.60;42.08;95547.09;4985435;28;20121;-68
2022/12/20 06:29:32;;;;;;;16.70;10.80;;;;;;;5.61;41.31;95554.88;4986317;28;20685;-69
2022/12/20 06:31:57;;;;;;;15.73;10.73;;;;;;;5.61;41.63;95549.59;4985220;28;20118;-67
2022/12/20 06:34:23;;;;;;;15.93;10.77;;;;;;;5.59;41.28;95554.22;4984554;28;20112;-68
2022/12/20 06:36:48;;;;;;;16.08;10.73;;;;;;;5.57;43.04;95542.94;4983888;28;20106;-67
2022/12/20 06:39:14;;;;;;;15.45;9.95;;;;;;;5.62;42.30;95547.78;4983733;28;20227;-70
2022/12/20 06:41:39;;;;;;;14.00;9.45;;;;;;;5.75;41.25;95547.44;4984561;28;20111;-67
2022/12/20 06:44:05;;;;;;;16.98;10.30;;;;;;;5.66;42.32;95546.50;4983326;28;20080;-68
2022/12/20 06:46:30;;;;;;;15.52;10.50;;;;;;;5.72;41.50;95547.72;4985504;28;20458;-69
2022/12/20 06:48:56;;;;;;;15.50;10.18;;;;;;;5.71;41.31;95552.19;4984327;28;20088;-70
2022/12/20 06:51:21;;;;;;;15.07;9.80;;;;;;;5.69;41.76;95542.75;4981066;28;20491;-67
2022/12/20 06:53:47;;;;;;;13.57;9.88;;;;;;;5.59;42.45;95533.09;4984215;28;20135;-70
2022/12/20 06:56:12;;;;;;;13.13;9.13;;;;;;;5.67;41.46;95532.31;4983562;28;20135;-67
2022/12/20 06:58:37;;;;;;;14.50;9.73;;;;;;;5.60;41.58;95539.16;4984061;28;20101;-67
2022/12/20 07:01:03;;;;;;;14.48;9.23;;;;;;;5.63;42.24;95530.13;4984083;28;20090;-70
2022/12/20 07:03:28;;;;;;;12.93;9.30;;;;;;;5.66;41.04;95521.91;4983320;28;20106;-69
2022/12/20 07:05:54;;;;;;;14.70;9.52;;;;;;;5.60;41.60;95525.97;4980847;28;20473;-70
2022/12/20 07:08:20;;;;;;;14.68;9.20;;;;;;;5.77;41.59;95523.47;4984883;28;20093;-67
2022/12/20 07:10:45;;;;;;;14.18;8.85;;;;;;;5.76;42.00;95533.25;4984832;28;20479;-68
2022/12/20 07:13:11;;;;;;;15.27;10.18;;;;;;;5.79;41.42;95522.38;4981319;28;20803;-69
2022/12/20 07:15:36;;;;;;;15.40;9.48;;;;;;;5.79;45.18;95510.97;4975625;28;20148;-70
2022/12/20 07:18:02;;;;;;;14.95;9.52;;;;;;;5.65;42.01;95504.41;4980357;28;20175;-69
2022/12/20 07:20:28;;;;;;;13.43;9.15;;;;;;;5.76;41.21;95504.19;4981409;28;20943;-69
2022/12/20 07:22:53;;;;;;;11.95;8.05;;;;;;;5.61;43.49;95506.50;4977735;28;20184;-68
2022/12/20 07:25:19;;;;;;;14.02;9.40;;;;;;;5.73;42.03;95517.69;4978355;28;20092;-68
2022/12/20 07:27:50;;;;;;;13.40;9.07;;;;;;;5.63;43.30;95515.13;4979448;28;20072;-70
2022/12/20 07:30:17;;;;;;;15.77;10.00;;;;;;;5.64;42.08;95508.03;4982075;28;20357;-68
2022/12/20 07:32:42;;;;;;;17.20;10.57;;;;;;;5.60;42.77;95515.41;4980294;28;20076;-66
2022/12/20 07:35:09;;;;;;;15.07;10.30;;;;;;;5.74;43.49;95499.03;4980221;28;20140;-69
2022/12/20 07:37:34;;;;;;;16.38;10.20;;;;;;;5.61;45.71;95504.69;4981618;28;20634;-68
2022/12/20 07:40:00;;;;;;;16.75;11.38;;;;;;;5.76;43.86;95498.91;4980923;28;20298;-69
2022/12/20 07:42:25;;;;;;;15.43;9.30;;;;;;;5.89;45.15;95495.88;4981355;28;20109;-68
2022/12/20 07:44:51;;;;;;;17.90;11.77;;;;;;;5.79;43.31;95490.69;4980010;28;20082;-69
2022/12/20 07:47:16;;;;;;;15.18;9.70;;;;;;;5.85;44.80;95484.78;4980363;28;20382;-68
2022/12/20 07:49:41;;;;;;;14.93;10.02;;;;;;;5.86;43.17;95472.41;4981178;28;20114;-68
2022/12/20 07:52:07;;;;;;;19.02;12.63;;;;;;;5.85;41.94;95470.75;4979533;28;20061;-69
2022/12/20 07:54:34;;;;;;;17.20;11.95;;;;;;;5.89;42.54;95461.53;4978497;28;20122;-68
2022/12/20 07:57:07;;;;;;;17.42;11.77;;;;;;;5.92;41.90;95468.31;4981772;28;20082;-70
2022/12/20 07:59:38;;;;;;;18.13;12.90;;;;;;;5.98;42.45;95478.25;4983439;28;20101;-68
2022/12/20 08:02:03;;;;;;;18.40;12.45;;;;;;;6.05;42.31;95473.22;4978260;28;20544;-68
2022/12/20 08:04:29;;;;;;;20.67;14.85;;;;;;;5.99;41.44;95479.94;4979450;28;20095;-70
2022/12/20 08:06:55;;;;;;;21.63;15.93;;;;;;;6.04;40.91;95475.03;4980765;28;20473;-68
2022/12/20 08:09:20;;;;;;;19.38;14.18;;;;;;;6.05;40.72;95474.03;4976621;28;20193;-69
2022/12/20 08:11:46;;;;;;;20.65;14.80;;;;;;;6.08;40.81;95473.72;4982522;28;20519;-70
2022/12/20 08:14:11;;;;;;;20.98;15.65;;;;;;;6.10;40.39;95468.31;4980298;28;20597;-70
2022/12/20 08:16:37;;;;;;;19.30;14.80;;;;;;;5.98;41.24;95470.34;4980868;28;20309;-68
2022/12/20 08:19:02;;;;;;;21.25;14.95;;;;;;;6.04;41.14;95471.53;4985069;28;20113;-67
2022/12/20 08:21:29;;;;;;;22.38;16.52;;;;;;;6.15;40.63;95473.94;4976873;28;20250;-69
2022/12/20 08:23:55;;;;;;;21.90;15.65;;;;;;;5.98;42.90;95470.34;4984124;28;20160;-69
2022/12/20 08:26:20;;;;;;;15.68;11.00;;;;;;;5.99;46.40;95475.47;4977110;28;20337;-68
2022/12/20 08:28:46;;;;;;;22.33;16.90;;;;;;;5.96;41.70;95475.78;4984140;28;20071;-68
2022/12/20 08:31:11;;;;;;;22.95;15.90;;;;;;;6.06;42.96;95482.81;4976973;28;20157;-69
2022/12/20 08:33:37;;;;;;;23.35;17.42;;;;;;;6.09;41.13;95472.75;4981165;28;20102;-69
2022/12/20 08:36:04;;;;;;;24.15;16.40;;;;;;;6.21;41.37;95478.63;4980469;28;20076;-69
2022/12/20 08:38:30;;;;;;;23.05;17.67;;;;;;;6.22;41.07;95472.34;4982441;28;20516;-69
2022/12/20 08:41:00;;;;;;;25.25;17.92;;;;;;;6.25;41.12;95466.75;4979090;28;20146;-69
2022/12/20 08:43:25;;;;;;;23.77;17.08;;;;;;;6.15;41.76;95463.38;4981065;28;20156;-69
2022/12/20 08:45:53;;;;;;;22.55;16.60;;;;;;;6.18;41.19;95460.44;4986394;28;20104;-69
2022/12/20 08:48:18;;;;;;;26.17;17.55;;;;;;;6.21;41.14;95456.63;4983770;28;20604;-69
2022/12/20 08:50:44;;;;;;;25.60;16.83;;;;;;;6.15;42.36;95457.28;4985773;28;20103;-69
2022/12/20 08:53:09;;;;;;;26.60;19.63;;;;;;;6.38;40.83;95447.00;4982427;28;20212;-67
2022/12/20 08:55:35;;;;;;;14.60;9.60;;;;;;;6.30;44.58;95466.31;4983324;28;20180;-70
2022/12/20 08:58:00;;;;;;;17.92;12.85;;;;;;;6.13;46.30;95476.75;4982284;28;20095;-67
2022/12/20 09:00:25;;;;;;;13.98;9.98;;;;;;;5.83;43.20;95470.06;4986074;28;20089;-69
2022/12/20 09:02:53;;;;;;;21.17;14.02;;;;;;;6.16;42.26;95459.75;4981152;28;20151;-68
2022/12/20 09:05:19;;;;;;;14.13;9.18;;;;;;;6.27;45.43;95457.84;4981877;28;20574;-69
2022/12/20 09:07:44;;;;;;;23.70;17.23;;;;;;;6.32;42.53;95463.50;4986894;28;20075;-69
2022/12/20 09:10:10;;;;;;;24.88;18.85;;;;;;;6.47;40.94;95467.22;4984919;28;20119;-68
2022/12/20 09:12:36;;;;;;;23.65;16.60;;;;;;;6.54;41.44;95450.75;4984896;28;20143;-68
2022/12/20 09:15:02;;;;;;;19.17;12.68;;;;;;;6.59;43.46;95453.75;4985595;28;20610;-70
2022/12/20 09:17:27;;;;;;;22.35;15.50;;;;;;;6.69;41.92;95457.13;4982073;28;20133;-67
2022/12/20 09:19:54;;;;;;;22.15;16.25;;;;;;;6.81;41.53;95457.69;4984244;28;20087;-70
2022/12/20 09:22:19;;;;;;;12.85;9.23;;;;;;;6.71;43.35;95457.81;4979878;28;20218;-68
2022/12/20 09:24:45;;;;;;;11.38;7.43;;;;;;;6.67;46.58;95466.22;4979422;28;20131;-69
2022/12/20 09:27:10;;;;;;;23.48;17.00;;;;;;;6.74;40.98;95460.13;4979435;28;20092;-68
2022/12/20 09:29:35;;;;;;;24.98;17.60;;;;;;;6.69;41.28;95457.13;4979338;28;20098;-69
2022/12/20 09:32:01;;;;;;;25.38;19.42;;;;;;;6.87;42.23;95464.19;4980724;28;20078;-68
2022/12/20 09:34:26;;;;;;;20.05;14.23;;;;;;;7.06;41.85;95465.75;4979521;28;20116;-68
2022/12/20 09:36:52;;;;;;;25.92;19.58;;;;;;;7.10;39.86;95460.94;4982283;28;20091;-69
2022/12/20 09:39:18;;;;;;;22.38;17.50;;;;;;;7.19;39.61;95465.28;4979089;28;20581;-67
2022/12/20 09:41:43;;;;;;;22.35;16.88;;;;;;;7.24;40.00;95470.94;4984752;28;20239;-68
2022/12/20 09:44:14;;;;;;;27.60;20.55;;;;;;;7.28;40.89;95453.72;4983513;28;20728;-68
2022/12/20 09:46:39;;;;;;;10.45;6.57;;;;;;;7.61;43.01;95462.72;4978411;28;20212;-69
2022/12/20 09:49:05;;;;;;;11.43;6.95;;;;;;;7.71;44.23;95467.88;4963582;28;20116;-70
2022/12/20 09:51:30;;;;;;;22.73;9.57;;;;;;;7.76;44.06;95455.78;4984234;28;20088;-70
2022/12/20 09:53:55;;;;;;;12.77;7.30;;;;;;;7.56;44.89;95450.00;4983905;28;20100;-68
2022/12/20 09:56:27;;;;;;;18.33;12.60;;;;;;;7.52;44.52;95449.47;4980828;28;20616;-70
2022/12/20 09:58:58;;;;;;;10.88;6.53;;;;;;;6.43;48.19;95435.97;4983675;28;20341;-69
2022/12/20 10:01:25;;;;;;;14.07;9.02;;;;;;;6.99;46.79;95440.88;4978710;28;20110;-69
2022/12/20 10:03:50;;;;;;;9.50;6.20;;;;;;;6.90;47.68;95453.25;4986551;28;20070;-69
2022/12/20 10:06:22;;;;;;;10.43;6.03;;;;;;;6.34;49.30;95437.72;4979856;28;20165;-69
2022/12/20 10:08:57;;;;;;;16.52;11.40;;;;;;;6.95;47.34;95435.09;4978838;28;20086;-67
2022/12/20 10:11:44;;;;;;;9.88;6.30;;;;;;;7.24;46.76;95439.16;4967043;28;20116;-69
2022/12/20 10:14:33;;;;;;;12.18;7.85;;;;;;;7.31;46.62;95441.16;4984278;28;20591;-70
2022/12/20 10:17:14;;;;;;;10.65;5.93;;;;;;;7.35;46.17;95437.19;4980489;28;20176;-71
2022/12/20 10:19:45;;;;;;;14.43;10.68;;;;;;;7.43;46.34;95434.56;4983529;28;20194;-68
2022/12/20 10:22:16;;;;;;;7.55;5.35;;;;;;;6.92;48.00;95438.06;4986109;28;20106;-69
2022/12/20 10:24:44;;;;;;;12.07;7.55;;;;;;;7.24;47.09;95433.84;4979754;28;20094;-70
2022/12/20 10:27:15;;;;;;;20.25;13.48;;;;;;;7.31;46.60;95433.22;4982460;28;20110;-70
2022/12/20 10:29:40;;;;;;;19.27;12.95;;;;;;;7.37;46.95;95421.97;4977846;28;20162;-68
2022/12/20 10:32:11;;;;;;;11.48;6.75;;;;;;;7.27;46.08;95420.31;4986464;28;20077;-69
2022/12/20 10:34:37;;;;;;;7.40;5.00;;;;;;;7.44;46.95;95420.31;4977803;28;20634;-70
2022/12/20 10:37:15;;;;;;;11.85;8.40;;;;;;;7.55;46.67;95419.16;4984900;28;20090;-70
2022/12/20 10:39:42;;;;;;;11.68;7.75;;;;;;;7.67;45.66;95414.41;4985433;28;20546;-70
2022/12/20 10:42:39;;;;;;;14.10;8.32;;;;;;;7.72;46.02;95417.38;4982314;28;20115;-69
2022/12/20 10:45:22;;;;;;;7.55;5.07;;;;;;;7.66;46.59;95410.91;4964306;28;20065;-68
2022/12/20 10:47:48;;;;;;;20.27;12.90;;;;;;;7.61;46.66;95413.22;4983402;28;20151;-70
2022/12/20 10:50:19;;;;;;;14.88;10.32;;;;;;;7.77;46.81;95406.31;4983216;28;20580;-69
2022/12/20 10:52:45;;;;;;;10.35;5.50;;;;;;;7.90;46.01;95403.19;4980606;28;20105;-69
2022/12/20 10:55:33;;;;;;;7.78;4.97;;;;;;;8.03;46.32;95394.72;4980141;28;20621;-70
2022/12/20 10:58:34;;;;;;;14.02;8.85;;;;;;;7.78;46.56;95390.25;4984921;28;20376;-69
2022/12/20 11:01:13;;;;;;;7.72;5.20;;;;;;;8.12;45.80;95391.06;4976416;28;20087;-68
2022/12/20 11:03:58;;;;;;;9.38;6.22;;;;;;;7.83;46.22;95391.56;4979824;28;20591;-70
2022/12/20 11:06:29;;;;;;;12.32;8.75;;;;;;;7.98;46.74;95383.78;4981376;28;20155;-69
2022/12/20 11:09:21;;;;;;;10.88;5.57;;;;;;;8.15;46.06;95392.53;4975443;28;20349;-68
2022/12/20 11:12:12;;;;;;;17.33;10.93;;;;;;;8.09;46.48;95390.56;4979593;28;20594;-69
2022/12/20 11:14:38;;;;;;;31.20;21.77;;;;;;;8.14;44.83;95383.78;4982416;28;20450;-68
2022/12/20 11:17:06;;;;;;;11.35;6.55;;;;;;;7.97;46.29;95390.91;4985203;28;20401;-70
2022/12/20 11:20:11;;;;;;;10.80;6.70;;;;;;;8.18;45.32;95384.25;4978170;28;20648;-70
2022/12/20 11:22:51;;;;;;;15.68;10.82;;;;;;;7.25;47.94;95395.78;4903785;29;20667;-69
2022/12/20 11:25:32;;;;;;;8.38;4.65;;;;;;;6.84;48.75;95375.31;4972200;28;20106;-70
2022/12/20 11:28:18;;;;;;;23.58;15.88;;;;;;;7.51;47.39;95373.66;4984199;28;20103;-69
2022/12/20 11:31:09;;;;;;;17.95;12.85;;;;;;;7.89;46.19;95367.88;4980550;28;20570;-70
2022/12/20 11:33:49;;;;;;;8.15;5.22;;;;;;;7.98;46.21;95367.88;4970585;28;20103;-70
2022/12/20 11:36:24;;;;;;;27.30;17.27;;;;;;;7.89;45.17;95353.81;4984033;28;20134;-69
2022/12/20 11:38:55;;;;;;;8.10;4.75;;;;;;;8.25;45.43;95365.81;4979373;28;20104;-68